Time;durP1;ratioP1;P1;durP2;ratioP2;P2;SDS_P1;SDS_P2;PMS_P1;PMS_P2;Temp;Humidity;BMP_temperature;BMP_pressure;BME280_temperature;BME280_humidity;BME280_pressure;Samples;Min_cycle;Max_cycle;Signal;HPM_P1;HPM_P2
2023/03/31 00:01:40;;;;;;;37.50;7.83;;;10.80;99.90;;;;;;4985844;28;20457;-77
2023/03/31 00:04:07;;;;;;;27.98;7.47;;;10.70;99.90;;;;;;4986497;28;20426;-79
2023/03/31 00:06:40;;;;;;;37.28;9.02;;;10.60;99.90;;;;;;4986670;28;20492;-81
2023/03/31 00:09:09;;;;;;;37.00;7.88;;;10.60;99.90;;;;;;4987956;28;20773;-78
2023/03/31 00:11:36;;;;;;;36.53;8.93;;;10.60;99.90;;;;;;4986430;28;20793;-79
2023/03/31 00:14:06;;;;;;;29.85;8.13;;;10.50;99.90;;;;;;4987410;28;20533;-76
2023/03/31 00:16:32;;;;;;;38.93;9.00;;;10.50;99.90;;;;;;4988284;28;20935;-78
2023/03/31 00:19:00;;;;;;;30.15;7.22;;;10.50;99.90;;;;;;4987019;28;20435;-78
2023/03/31 00:21:36;;;;;;;36.25;8.15;;;10.50;99.90;;;;;;4987185;28;20438;-77
2023/03/31 00:24:05;;;;;;;34.47;8.38;;;10.40;99.90;;;;;;4987028;28;20521;-78
2023/03/31 00:26:32;;;;;;;34.35;7.70;;;10.30;99.90;;;;;;4966987;28;20432;-77
2023/03/31 00:28:58;;;;;;;34.08;7.47;;;10.40;99.90;;;;;;4983011;28;20477;-77
2023/03/31 00:31:25;;;;;;;38.75;9.32;;;10.30;99.90;;;;;;4983672;28;20430;-76
2023/03/31 00:33:51;;;;;;;34.83;7.57;;;10.30;99.90;;;;;;4987121;28;20429;-78
2023/03/31 00:36:20;;;;;;;34.75;7.65;;;10.20;99.90;;;;;;4981775;28;20432;-77
2023/03/31 00:38:50;;;;;;;30.40;7.37;;;10.20;99.90;;;;;;4987105;28;20461;-76
2023/03/31 00:41:16;;;;;;;29.27;7.50;;;10.20;99.90;;;;;;4985721;28;20427;-77
2023/03/31 00:44:00;;;;;;;28.20;6.80;;;10.10;99.90;;;;;;4987752;28;20434;-79
2023/03/31 00:46:33;;;;;;;37.55;9.00;;;10.10;99.90;;;;;;4987761;28;20446;-79
2023/03/31 00:49:00;;;;;;;27.65;7.50;;;10.20;99.90;;;;;;4981940;28;20506;-78
2023/03/31 00:51:29;;;;;;;32.53;7.10;;;10.10;99.90;;;;;;4985996;28;20441;-77
2023/03/31 00:54:04;;;;;;;31.20;7.25;;;10.10;99.90;;;;;;4985676;28;20576;-77
2023/03/31 00:56:35;;;;;;;32.65;7.80;;;10.10;99.90;;;;;;4986810;28;20430;-76
2023/03/31 00:59:06;;;;;;;33.73;7.70;;;10.00;99.90;;;;;;4986740;28;20426;-76
2023/03/31 01:01:34;;;;;;;39.30;8.43;;;9.90;99.90;;;;;;4987362;28;21221;-78
2023/03/31 01:04:01;;;;;;;32.92;7.75;;;10.00;99.90;;;;;;4982117;28;20805;-81
2023/03/31 01:06:29;;;;;;;30.17;7.03;;;9.80;99.90;;;;;;4987004;28;20534;-78
2023/03/31 01:08:56;;;;;;;31.30;8.00;;;9.80;99.90;;;;;;5002457;28;20457;-78
2023/03/31 01:11:26;;;;;;;34.33;7.80;;;9.80;99.90;;;;;;4986616;28;20782;-79
2023/03/31 01:13:55;;;;;;;31.48;7.28;;;9.80;99.90;;;;;;4981350;28;20512;-79
2023/03/31 01:16:20;;;;;;;36.05;7.82;;;9.80;99.90;;;;;;4983216;28;20939;-79
2023/03/31 01:18:48;;;;;;;30.38;7.78;;;9.70;99.90;;;;;;4986046;28;20509;-78
2023/03/31 01:21:31;;;;;;;30.23;6.10;;;9.70;99.90;;;;;;4986970;28;20464;-77
2023/03/31 01:23:59;;;;;;;25.48;6.72;;;9.70;99.90;;;;;;4986876;28;20445;-79
2023/03/31 01:26:40;;;;;;;32.97;7.65;;;9.70;99.90;;;;;;4988387;28;20513;-78
2023/03/31 01:29:07;;;;;;;30.10;6.80;;;9.70;99.90;;;;;;4987269;28;20795;-79
2023/03/31 01:31:47;;;;;;;30.73;6.93;;;9.60;99.90;;;;;;4987474;28;20445;-78
2023/03/31 01:34:35;;;;;;;29.17;7.10;;;9.60;99.90;;;;;;4985546;28;20458;-78
2023/03/31 01:37:33;;;;;;;35.73;7.83;;;9.60;99.90;;;;;;4987465;28;20465;-77
2023/03/31 01:40:08;;;;;;;33.72;8.30;;;9.60;99.90;;;;;;4986187;28;20996;-77
2023/03/31 01:42:56;;;;;;;37.88;7.75;;;9.60;99.90;;;;;;4983559;28;20921;-77
2023/03/31 01:46:07;;;;;;;28.75;6.85;;;9.60;99.90;;;;;;4986014;28;20802;-79
2023/03/31 01:49:03;;;;;;;27.52;6.35;;;9.60;99.90;;;;;;4970827;28;20458;-77
2023/03/31 01:51:43;;;;;;;24.83;6.05;;;9.60;99.90;;;;;;4981657;28;20445;-79
2023/03/31 01:54:11;;;;;;;28.33;6.30;;;9.60;99.90;;;;;;4985796;28;20410;-78
2023/03/31 01:56:50;;;;;;;28.58;6.80;;;9.60;99.90;;;;;;4986619;28;20917;-78
2023/03/31 01:59:27;;;;;;;27.60;6.55;;;9.70;99.90;;;;;;4985478;28;20434;-77
2023/03/31 02:02:06;;;;;;;24.40;6.53;;;9.60;99.90;;;;;;4984949;28;20434;-77
2023/03/31 02:04:55;;;;;;;29.55;6.78;;;9.60;99.90;;;;;;4985070;28;20430;-79
2023/03/31 02:07:34;;;;;;;34.55;7.63;;;9.70;99.90;;;;;;4982965;28;20562;-77
2023/03/31 02:10:06;;;;;;;29.87;6.40;;;9.70;99.90;;;;;;4987898;28;20511;-77
2023/03/31 02:12:33;;;;;;;26.92;6.13;;;9.70;99.90;;;;;;5005503;28;20557;-77
2023/03/31 02:15:01;;;;;;;29.33;6.20;;;9.70;99.90;;;;;;4988736;28;20453;-78
2023/03/31 02:17:31;;;;;;;30.25;6.63;;;9.80;99.90;;;;;;4984089;28;20480;-76
2023/03/31 02:20:14;;;;;;;26.33;6.07;;;9.70;99.90;;;;;;4988168;28;20534;-78
2023/03/31 02:22:45;;;;;;;25.27;6.03;;;9.80;99.90;;;;;;4987953;28;20814;-77
2023/03/31 02:25:15;;;;;;;23.60;5.17;;;9.70;99.90;;;;;;4988050;28;20438;-79
2023/03/31 02:27:45;;;;;;;26.20;6.70;;;9.70;99.90;;;;;;4990996;28;21088;-77
2023/03/31 02:30:12;;;;;;;22.70;5.53;;;9.80;99.90;;;;;;4989541;28;20521;-77
2023/03/31 02:32:40;;;;;;;24.15;5.90;;;9.80;99.90;;;;;;4989394;28;20426;-77
2023/03/31 02:35:10;;;;;;;40.05;7.82;;;9.80;99.90;;;;;;4990026;28;20496;-77
2023/03/31 02:37:37;;;;;;;24.63;6.32;;;9.80;99.90;;;;;;4988572;28;20926;-79
2023/03/31 02:40:11;;;;;;;24.80;5.18;;;9.80;99.90;;;;;;4986814;28;20783;-78
2023/03/31 02:42:38;;;;;;;27.83;6.35;;;9.70;99.90;;;;;;4989762;28;20441;-78
2023/03/31 02:45:43;;;;;;;23.58;4.47;;;9.80;99.90;;;;;;4989308;28;20453;-77
2023/03/31 02:48:24;;;;;;;24.83;5.57;;;9.80;99.90;;;;;;4989665;28;20450;-77
2023/03/31 02:51:08;;;;;;;25.65;6.10;;;9.70;99.90;;;;;;4989443;28;20826;-78
2023/03/31 02:53:52;;;;;;;24.73;5.95;;;9.80;99.90;;;;;;4991212;28;20534;-78
2023/03/31 02:56:36;;;;;;;31.17;6.57;;;9.70;99.90;;;;;;4990834;28;20947;-78
2023/03/31 02:59:25;;;;;;;23.27;5.88;;;9.70;99.90;;;;;;4991138;28;20505;-77
2023/03/31 03:02:21;;;;;;;24.02;5.43;;;9.80;99.90;;;;;;4976335;28;20430;-77
2023/03/31 03:05:12;;;;;;;21.08;5.03;;;9.80;99.90;;;;;;4989997;28;20434;-77
2023/03/31 03:08:13;;;;;;;22.10;5.65;;;9.80;99.90;;;;;;4989978;28;20430;-77
2023/03/31 03:11:18;;;;;;;21.88;6.18;;;9.90;99.90;;;;;;4969960;28;20440;-77
2023/03/31 03:13:59;;;;;;;19.83;5.82;;;9.80;99.90;;;;;;4986384;28;20509;-76
2023/03/31 03:16:31;;;;;;;24.52;5.60;;;9.90;99.90;;;;;;4987049;28;20426;-78
2023/03/31 03:19:03;;;;;;;23.77;5.00;;;9.90;99.90;;;;;;4988599;28;20433;-77
2023/03/31 03:21:29;;;;;;;25.88;5.97;;;9.80;99.90;;;;;;4989766;28;20427;-78
2023/03/31 03:23:55;;;;;;;21.73;4.80;;;9.90;99.90;;;;;;4985772;28;20438;-76
2023/03/31 03:26:23;;;;;;;23.67;5.05;;;9.90;99.90;;;;;;4988476;28;20505;-76
2023/03/31 03:28:52;;;;;;;21.97;5.03;;;10.00;99.90;;;;;;4973212;28;20484;-78
2023/03/31 03:31:18;;;;;;;16.35;4.32;;;10.00;99.90;;;;;;4988540;28;20519;-76
2023/03/31 03:33:45;;;;;;;18.67;4.13;;;10.10;99.90;;;;;;4990362;28;20437;-77
2023/03/31 03:36:11;;;;;;;19.80;4.95;;;10.10;99.90;;;;;;4987841;28;20481;-77
2023/03/31 03:38:36;;;;;;;17.57;4.53;;;10.10;99.90;;;;;;4989542;28;20504;-78
2023/03/31 03:41:02;;;;;;;21.77;5.83;;;10.10;99.90;;;;;;4987000;28;20515;-77
2023/03/31 03:43:28;;;;;;;18.23;4.88;;;10.10;99.90;;;;;;4997196;28;20426;-77
2023/03/31 03:45:54;;;;;;;19.53;6.23;;;10.20;99.90;;;;;;4988526;28;20437;-78
2023/03/31 03:48:20;;;;;;;16.05;4.43;;;10.20;99.90;;;;;;4991878;28;20497;-79
2023/03/31 03:50:46;;;;;;;16.63;5.40;;;10.20;99.90;;;;;;4990430;28;20430;-76
2023/03/31 03:53:13;;;;;;;19.17;4.78;;;10.10;99.90;;;;;;4990457;28;20433;-77
2023/03/31 03:55:39;;;;;;;19.83;5.15;;;10.10;99.90;;;;;;4992259;28;20494;-78
2023/03/31 03:58:05;;;;;;;17.20;5.57;;;10.20;99.90;;;;;;4994058;28;20480;-78
2023/03/31 04:00:30;;;;;;;17.33;4.75;;;10.20;99.90;;;;;;4990015;28;20928;-77
2023/03/31 04:02:56;;;;;;;22.80;6.00;;;10.10;99.90;;;;;;4989890;28;20430;-77
2023/03/31 04:05:22;;;;;;;21.77;6.00;;;10.20;99.90;;;;;;4991137;28;20445;-77
2023/03/31 04:07:47;;;;;;;18.88;6.28;;;10.20;99.90;;;;;;4989117;28;21047;-76
2023/03/31 04:10:13;;;;;;;21.88;6.22;;;10.10;99.90;;;;;;4988662;28;20461;-77
2023/03/31 04:12:39;;;;;;;13.32;4.90;;;10.10;99.90;;;;;;4990163;28;20418;-78
2023/03/31 04:15:05;;;;;;;17.63;5.70;;;10.10;99.90;;;;;;4992468;28;20426;-76
2023/03/31 04:17:31;;;;;;;15.80;5.20;;;10.20;99.90;;;;;;4993234;28;20430;-76
2023/03/31 04:20:04;;;;;;;16.83;5.40;;;10.10;99.90;;;;;;4994085;28;20829;-75
2023/03/31 04:22:34;;;;;;;20.33;6.57;;;10.20;99.90;;;;;;4989914;28;20457;-76
2023/03/31 04:25:03;;;;;;;13.63;5.38;;;10.20;99.90;;;;;;4991689;28;20545;-76
2023/03/31 04:27:29;;;;;;;16.90;5.47;;;10.30;99.90;;;;;;4992098;28;20427;-77
2023/03/31 04:29:55;;;;;;;13.48;6.47;;;10.20;99.90;;;;;;4992530;28;20430;-77
2023/03/31 04:32:22;;;;;;;16.08;5.72;;;10.30;99.90;;;;;;4991583;28;20469;-76
2023/03/31 04:34:49;;;;;;;15.45;6.03;;;10.20;99.90;;;;;;4990027;28;20526;-76
2023/03/31 04:37:16;;;;;;;13.25;6.22;;;10.30;99.90;;;;;;4988095;28;20453;-79
2023/03/31 04:39:45;;;;;;;15.93;6.55;;;10.30;99.90;;;;;;4987065;28;20770;-75
2023/03/31 04:42:12;;;;;;;16.38;6.18;;;10.20;99.90;;;;;;4974433;28;20500;-76
2023/03/31 04:44:37;;;;;;;16.00;6.30;;;10.30;99.90;;;;;;4987461;28;20486;-76
2023/03/31 04:47:05;;;;;;;13.05;6.13;;;10.30;99.90;;;;;;4986273;28;20438;-75
2023/03/31 04:49:32;;;;;;;15.93;5.72;;;10.20;99.90;;;;;;4986876;28;20426;-75
2023/03/31 04:51:58;;;;;;;14.10;6.55;;;10.30;99.90;;;;;;4983686;28;20442;-76
2023/03/31 04:54:23;;;;;;;14.82;7.05;;;10.20;99.90;;;;;;4983884;28;20438;-76
2023/03/31 04:56:49;;;;;;;18.20;6.20;;;10.30;99.90;;;;;;4986961;28;20952;-76
2023/03/31 04:59:15;;;;;;;16.20;6.77;;;10.30;99.90;;;;;;4985660;28;20434;-76
2023/03/31 05:01:44;;;;;;;14.97;6.87;;;10.30;99.90;;;;;;4985184;28;20793;-75
2023/03/31 05:04:10;;;;;;;19.05;7.90;;;10.30;99.90;;;;;;4985340;28;20414;-75
2023/03/31 05:06:35;;;;;;;15.98;6.15;;;10.30;99.90;;;;;;4966754;28;20446;-76
2023/03/31 05:09:01;;;;;;;18.42;6.88;;;10.30;99.90;;;;;;4984787;28;20426;-75
2023/03/31 05:11:27;;;;;;;21.17;8.07;;;10.20;99.90;;;;;;4980525;28;20616;-75
2023/03/31 05:13:53;;;;;;;18.20;8.15;;;10.20;99.90;;;;;;4987244;28;20461;-75
2023/03/31 05:16:19;;;;;;;17.15;7.65;;;10.20;99.90;;;;;;4986063;28;20426;-75
2023/03/31 05:18:45;;;;;;;17.57;7.47;;;10.30;99.90;;;;;;4986941;28;20463;-75
2023/03/31 05:21:16;;;;;;;19.50;7.78;;;10.20;99.90;;;;;;4985107;28;20449;-75
2023/03/31 05:23:42;;;;;;;18.27;7.47;;;10.20;99.90;;;;;;4979533;28;20436;-75
2023/03/31 05:26:09;;;;;;;16.42;8.27;;;10.10;99.90;;;;;;4984204;28;20434;-75
2023/03/31 05:28:35;;;;;;;14.60;7.25;;;10.30;99.90;;;;;;4986516;28;20422;-75
2023/03/31 05:31:02;;;;;;;24.13;9.07;;;10.20;99.90;;;;;;4986520;28;20935;-75
2023/03/31 05:33:28;;;;;;;21.20;8.93;;;10.30;99.90;;;;;;4979862;28;20453;-75
2023/03/31 05:35:55;;;;;;;18.50;8.02;;;10.30;99.90;;;;;;4983170;28;20499;-75
2023/03/31 05:38:21;;;;;;;18.53;8.27;;;10.30;99.90;;;;;;4986070;28;20458;-75
2023/03/31 05:40:47;;;;;;;16.55;7.10;;;10.30;99.90;;;;;;4986764;28;20481;-75
2023/03/31 05:43:13;;;;;;;18.13;7.13;;;10.30;99.90;;;;;;4985444;28;20548;-75
2023/03/31 05:45:39;;;;;;;16.70;6.97;;;10.30;99.90;;;;;;4988897;28;20498;-75
2023/03/31 05:48:05;;;;;;;16.08;6.45;;;10.20;99.90;;;;;;4988367;28;20686;-75
2023/03/31 05:50:31;;;;;;;13.05;6.30;;;10.20;99.90;;;;;;4991509;28;20525;-75
2023/03/31 05:52:58;;;;;;;13.77;6.57;;;10.30;99.90;;;;;;4986918;28;20515;-75
2023/03/31 05:55:23;;;;;;;15.63;6.68;;;10.30;99.90;;;;;;4991886;28;20421;-75
2023/03/31 05:57:49;;;;;;;12.73;5.95;;;10.30;99.90;;;;;;4986985;28;21126;-76
2023/03/31 06:00:15;;;;;;;11.57;5.40;;;10.20;99.90;;;;;;4989726;28;20840;-76
2023/03/31 06:02:41;;;;;;;15.60;6.18;;;10.20;99.90;;;;;;4987456;28;20426;-75
2023/03/31 06:05:07;;;;;;;15.30;6.72;;;10.30;99.90;;;;;;4972749;28;20811;-75
2023/03/31 06:07:33;;;;;;;14.50;6.25;;;10.30;99.90;;;;;;4988398;28;20520;-75
2023/03/31 06:09:58;;;;;;;10.77;5.77;;;10.20;99.90;;;;;;4988671;28;20442;-76
2023/03/31 06:12:24;;;;;;;14.10;5.40;;;10.20;99.90;;;;;;4990306;28;20430;-76
2023/03/31 06:14:50;;;;;;;14.23;5.57;;;10.30;99.90;;;;;;4985642;28;20466;-76
2023/03/31 06:17:15;;;;;;;14.05;5.50;;;10.30;99.90;;;;;;4988921;28;20461;-75
2023/03/31 06:19:41;;;;;;;11.43;5.25;;;10.30;99.90;;;;;;4988028;28;20434;-75
2023/03/31 06:22:07;;;;;;;12.88;5.70;;;10.20;99.90;;;;;;4987990;28;20767;-76
2023/03/31 06:24:32;;;;;;;10.63;4.63;;;10.30;99.90;;;;;;4988602;28;20429;-75
2023/03/31 06:26:59;;;;;;;12.13;4.47;;;10.30;99.90;;;;;;4988108;28;20767;-75
2023/03/31 06:29:26;;;;;;;10.43;5.15;;;10.20;99.90;;;;;;4970213;28;20464;-75
2023/03/31 06:31:52;;;;;;;10.88;5.13;;;10.30;99.90;;;;;;4969175;28;20442;-75
2023/03/31 06:34:17;;;;;;;13.77;5.63;;;10.40;99.90;;;;;;4990570;28;20442;-75
2023/03/31 06:36:43;;;;;;;12.40;5.30;;;10.20;99.90;;;;;;4972289;28;20557;-75
2023/03/31 06:39:09;;;;;;;9.30;5.07;;;10.20;99.90;;;;;;4987724;28;20474;-75
2023/03/31 06:41:34;;;;;;;13.40;5.55;;;10.20;99.90;;;;;;4985699;28;20426;-75
2023/03/31 06:44:00;;;;;;;11.63;5.03;;;10.20;99.90;;;;;;4980723;28;21315;-74
2023/03/31 06:46:26;;;;;;;9.23;4.90;;;10.20;99.90;;;;;;4997449;28;20491;-74
2023/03/31 06:48:51;;;;;;;12.35;4.65;;;10.30;99.90;;;;;;4986642;28;20824;-75
2023/03/31 06:51:17;;;;;;;9.67;4.37;;;10.20;99.90;;;;;;4987220;28;20874;-74
2023/03/31 06:53:43;;;;;;;9.83;4.13;;;10.30;99.90;;;;;;4989015;28;20546;-75
2023/03/31 06:56:08;;;;;;;9.00;4.23;;;10.30;99.90;;;;;;4988428;28;20438;-75
2023/03/31 06:58:34;;;;;;;9.60;4.07;;;10.40;99.90;;;;;;4990727;28;20474;-75
2023/03/31 07:01:02;;;;;;;10.90;4.07;;;10.40;99.90;;;;;;4985415;28;20493;-75
2023/03/31 07:03:29;;;;;;;12.32;3.92;;;10.40;99.90;;;;;;4989755;28;20560;-76
2023/03/31 07:05:55;;;;;;;8.30;3.60;;;10.40;99.90;;;;;;4987751;28;20518;-75
2023/03/31 07:08:21;;;;;;;9.55;3.85;;;10.40;99.90;;;;;;5003524;28;20430;-77
2023/03/31 07:10:49;;;;;;;8.20;3.38;;;10.40;99.90;;;;;;4982852;28;20430;-77
2023/03/31 07:13:17;;;;;;;7.93;3.47;;;10.30;99.90;;;;;;4979441;28;20450;-77
2023/03/31 07:15:46;;;;;;;10.98;4.22;;;10.30;99.90;;;;;;4990685;28;20425;-77
2023/03/31 07:18:14;;;;;;;10.75;3.65;;;10.30;99.90;;;;;;4988579;28;20423;-76
2023/03/31 07:20:40;;;;;;;6.47;3.33;;;10.30;99.90;;;;;;4988033;28;20517;-77
2023/03/31 07:23:07;;;;;;;8.38;3.17;;;10.20;99.90;;;;;;4988454;28;20833;-77
2023/03/31 07:25:33;;;;;;;9.18;3.28;;;10.20;99.90;;;;;;4989036;28;20418;-77
2023/03/31 07:27:59;;;;;;;7.53;3.67;;;10.10;99.90;;;;;;4985881;28;20426;-76
2023/03/31 07:30:25;;;;;;;8.55;3.38;;;10.20;99.90;;;;;;4990156;28;20504;-76
2023/03/31 07:32:52;;;;;;;7.18;3.45;;;10.40;99.90;;;;;;4986377;28;20450;-77
2023/03/31 07:35:18;;;;;;;8.75;3.42;;;10.30;99.90;;;;;;4985569;28;20494;-76
2023/03/31 07:37:45;;;;;;;7.90;3.40;;;10.30;99.90;;;;;;4986688;28;20656;-77
2023/03/31 07:40:15;;;;;;;7.90;3.30;;;10.30;99.90;;;;;;4988272;28;20438;-77
2023/03/31 07:42:41;;;;;;;9.18;4.18;;;10.40;99.90;;;;;;4986358;28;20458;-76
2023/03/31 07:45:08;;;;;;;6.07;3.05;;;10.40;99.90;;;;;;4975389;28;20424;-77
2023/03/31 07:47:34;;;;;;;8.45;3.25;;;10.40;99.90;;;;;;4971773;28;20427;-76
2023/03/31 07:50:00;;;;;;;7.03;2.92;;;10.30;99.90;;;;;;4990248;28;20458;-77
2023/03/31 07:52:26;;;;;;;11.18;4.30;;;10.30;99.90;;;;;;4995873;28;20844;-74
2023/03/31 07:54:51;;;;;;;6.77;3.30;;;10.50;99.90;;;;;;4975434;28;20512;-77
2023/03/31 07:57:18;;;;;;;7.10;3.07;;;10.40;99.90;;;;;;4971093;28;20443;-78
2023/03/31 07:59:44;;;;;;;7.93;4.05;;;10.40;99.90;;;;;;4972673;28;20518;-78
2023/03/31 08:02:12;;;;;;;6.88;3.08;;;10.40;99.90;;;;;;4989086;28;20428;-77
2023/03/31 08:04:40;;;;;;;6.47;3.10;;;10.60;99.90;;;;;;4976013;28;20426;-77
2023/03/31 08:07:07;;;;;;;10.87;3.80;;;10.60;99.90;;;;;;4958398;28;20527;-77
2023/03/31 08:09:32;;;;;;;8.68;3.35;;;10.70;99.90;;;;;;4972603;28;20416;-75
2023/03/31 08:11:58;;;;;;;7.82;3.42;;;10.60;99.90;;;;;;4953584;28;20747;-76
2023/03/31 08:14:24;;;;;;;8.93;3.97;;;10.60;99.90;;;;;;4971693;28;20922;-78
2023/03/31 08:16:50;;;;;;;7.53;4.05;;;10.60;99.90;;;;;;4975353;28;20472;-78
2023/03/31 08:19:16;;;;;;;10.20;4.07;;;10.60;99.90;;;;;;4989744;28;20411;-76
2023/03/31 08:21:41;;;;;;;7.88;3.90;;;10.70;99.90;;;;;;4988233;28;20422;-77
2023/03/31 08:24:07;;;;;;;8.73;3.78;;;10.70;99.90;;;;;;4987913;28;20449;-77
2023/03/31 08:26:33;;;;;;;9.00;3.40;;;10.60;99.90;;;;;;4989204;28;20774;-77
2023/03/31 08:28:59;;;;;;;6.40;2.80;;;10.70;99.90;;;;;;4987328;28;20414;-77
2023/03/31 08:31:27;;;;;;;9.07;3.97;;;10.60;99.90;;;;;;4985595;28;20489;-78
2023/03/31 08:33:54;;;;;;;9.40;3.45;;;10.60;99.90;;;;;;4975641;28;20443;-76
2023/03/31 08:36:19;;;;;;;8.95;3.30;;;10.70;99.90;;;;;;4982186;28;20517;-76
2023/03/31 08:38:46;;;;;;;9.37;3.43;;;10.70;99.90;;;;;;4988006;28;20538;-76
2023/03/31 08:41:36;;;;;;;8.32;3.28;;;10.80;99.90;;;;;;4988250;28;20434;-76
2023/03/31 08:44:10;;;;;;;10.13;3.73;;;10.80;99.90;;;;;;4987485;28;20535;-76
2023/03/31 08:46:38;;;;;;;6.43;2.92;;;10.90;99.90;;;;;;4985898;28;20420;-78
2023/03/31 08:49:04;;;;;;;10.50;3.13;;;10.80;99.90;;;;;;4987043;28;20830;-76
2023/03/31 08:51:36;;;;;;;11.40;3.40;;;10.80;99.90;;;;;;4988447;28;20414;-78
2023/03/31 08:54:13;;;;;;;7.68;3.80;;;10.90;99.90;;;;;;4988215;28;20461;-78
2023/03/31 08:56:43;;;;;;;13.25;4.25;;;10.80;99.90;;;;;;4985643;28;21233;-77
2023/03/31 08:59:31;;;;;;;10.25;4.20;;;10.90;99.90;;;;;;4983584;28;20438;-77
2023/03/31 09:02:08;;;;;;;9.23;3.28;;;10.90;99.90;;;;;;4980867;28;20468;-79
2023/03/31 09:04:52;;;;;;;11.87;3.50;;;11.00;99.90;;;;;;4987683;28;20426;-77
2023/03/31 09:07:27;;;;;;;10.40;3.97;;;11.00;99.90;;;;;;4983631;28;20434;-77
2023/03/31 09:10:21;;;;;;;8.38;3.75;;;11.20;99.90;;;;;;4986280;28;20430;-78
2023/03/31 09:12:57;;;;;;;7.55;3.28;;;11.30;99.90;;;;;;4958920;28;20782;-78
2023/03/31 09:15:55;;;;;;;10.88;3.78;;;11.50;99.90;;;;;;4986479;28;20433;-78
2023/03/31 09:18:36;;;;;;;8.40;3.37;;;11.60;99.90;;;;;;4974913;28;20475;-79
2023/03/31 09:21:20;;;;;;;8.57;3.42;;;11.80;99.90;;;;;;4982882;28;20501;-78
2023/03/31 09:24:00;;;;;;;9.40;3.83;;;11.80;99.90;;;;;;4983624;28;20452;-76
2023/03/31 09:26:31;;;;;;;8.73;3.50;;;11.80;99.90;;;;;;4986604;28;20448;-78
2023/03/31 09:28:59;;;;;;;11.20;3.97;;;12.00;99.90;;;;;;4986861;28;20422;-78
2023/03/31 09:31:26;;;;;;;10.05;3.78;;;12.00;99.90;;;;;;4967081;28;20429;-76
2023/03/31 09:33:58;;;;;;;9.75;3.58;;;11.90;99.90;;;;;;4988141;28;20909;-77
2023/03/31 09:36:24;;;;;;;9.07;3.83;;;12.10;99.90;;;;;;4984801;28;20517;-76
2023/03/31 09:38:50;;;;;;;9.70;3.67;;;12.10;99.90;;;;;;4988142;28;20415;-78
2023/03/31 09:41:20;;;;;;;8.30;3.20;;;12.00;99.90;;;;;;4983870;28;20450;-76
2023/03/31 09:43:48;;;;;;;7.60;3.20;;;12.10;99.90;;;;;;4981709;28;20499;-76
2023/03/31 09:46:30;;;;;;;9.95;4.00;;;12.10;99.90;;;;;;4985068;28;20797;-77
2023/03/31 09:49:11;;;;;;;12.90;4.72;;;11.80;99.90;;;;;;4982422;28;20818;-75
2023/03/31 09:51:41;;;;;;;8.40;3.17;;;11.80;99.90;;;;;;4983716;28;20433;-76
2023/03/31 09:54:15;;;;;;;6.45;2.95;;;11.70;99.90;;;;;;4988244;28;20398;-77
2023/03/31 09:56:40;;;;;;;6.88;2.58;;;11.70;99.90;;;;;;4988228;28;20820;-78
2023/03/31 09:59:15;;;;;;;6.30;3.15;;;11.70;99.90;;;;;;4985916;28;20438;-77
2023/03/31 10:01:44;;;;;;;9.68;2.97;;;11.80;99.90;;;;;;4979204;28;20440;-78
2023/03/31 10:04:22;;;;;;;7.97;3.35;;;11.70;99.90;;;;;;4987430;28;20484;-77
2023/03/31 10:06:48;;;;;;;10.32;4.57;;;11.90;99.90;;;;;;4986236;28;20476;-80
2023/03/31 10:09:15;;;;;;;6.22;2.55;;;12.00;99.90;;;;;;4986562;28;20817;-77
2023/03/31 10:12:04;;;;;;;8.02;3.40;;;12.00;99.90;;;;;;4988045;28;20786;-79
2023/03/31 10:14:40;;;;;;;7.00;2.78;;;12.00;99.90;;;;;;4984066;28;20559;-80
2023/03/31 10:17:06;;;;;;;6.07;2.83;;;12.10;99.90;;;;;;4983074;28;20441;-79
2023/03/31 10:19:39;;;;;;;7.57;3.05;;;12.20;99.90;;;;;;4986660;28;20849;-77
2023/03/31 10:22:25;;;;;;;8.07;2.92;;;12.30;99.90;;;;;;5002682;28;20474;-77
2023/03/31 10:24:51;;;;;;;6.20;2.97;;;12.40;99.90;;;;;;4979072;28;20475;-76
2023/03/31 10:27:28;;;;;;;6.38;2.25;;;12.40;99.90;;;;;;4983897;28;20446;-79
2023/03/31 10:29:56;;;;;;;8.50;2.92;;;12.40;99.90;;;;;;4986809;28;20442;-77
2023/03/31 10:32:29;;;;;;;10.00;3.83;;;12.40;99.90;;;;;;4984678;28;20488;-77
2023/03/31 10:34:57;;;;;;;6.53;2.70;;;12.50;99.90;;;;;;4977799;28;20430;-78
2023/03/31 10:37:25;;;;;;;7.20;3.10;;;12.70;99.90;;;;;;4989323;28;20445;-83
2023/03/31 10:40:11;;;;;;;5.95;2.60;;;12.60;99.90;;;;;;4991087;28;20915;-75
2023/03/31 10:42:37;;;;;;;8.80;3.37;;;12.50;99.90;;;;;;4989454;28;20578;-79
2023/03/31 10:45:26;;;;;;;11.10;3.60;;;13.00;99.90;;;;;;4982980;28;20525;-77
2023/03/31 10:47:54;;;;;;;9.73;4.07;;;12.90;99.90;;;;;;4983531;28;20488;-77
2023/03/31 10:50:30;;;;;;;7.55;3.25;;;13.10;99.90;;;;;;4966607;28;20437;-77
2023/03/31 10:53:11;;;;;;;9.73;3.70;;;13.10;99.90;;;;;;4978746;28;20426;-79
2023/03/31 10:56:06;;;;;;;10.38;3.72;;;13.00;99.90;;;;;;4984062;28;20426;-78
2023/03/31 10:59:09;;;;;;;8.27;3.38;;;13.30;99.90;;;;;;4974521;28;20508;-79
2023/03/31 11:02:16;;;;;;;9.52;2.90;;;13.40;99.90;;;;;;4981723;28;20466;-79
2023/03/31 11:04:54;;;;;;;8.93;2.63;;;13.50;99.90;;;;;;4997849;28;20442;-79
2023/03/31 11:07:43;;;;;;;8.87;3.10;;;13.80;99.90;;;;;;4989085;28;20431;-79
2023/03/31 11:10:46;;;;;;;6.32;2.83;;;13.60;99.90;;;;;;4989516;28;20793;-80
2023/03/31 11:13:57;;;;;;;5.43;2.28;;;13.50;99.90;;;;;;4987824;28;20427;-82
2023/03/31 11:16:44;;;;;;;9.95;3.30;;;13.20;99.90;;;;;;4975268;28;20444;-80
2023/03/31 11:19:19;;;;;;;8.38;2.72;;;13.20;99.90;;;;;;4979322;28;20426;-77
2023/03/31 11:22:14;;;;;;;7.78;2.78;;;13.50;99.90;;;;;;4983827;28;20889;-76
2023/03/31 11:24:43;;;;;;;10.30;2.85;;;13.60;99.90;;;;;;4982723;28;20430;-78
2023/03/31 11:27:17;;;;;;;9.85;3.20;;;13.90;99.90;;;;;;4989613;28;20438;-78
2023/03/31 11:29:51;;;;;;;12.10;3.58;;;13.90;99.90;;;;;;4987595;28;20522;-82
2023/03/31 11:32:41;;;;;;;10.35;2.65;;;13.80;99.90;;;;;;4987757;28;20820;-82
2023/03/31 11:35:22;;;;;;;6.78;2.30;;;13.80;99.90;;;;;;4987058;28;20434;-84
2023/03/31 11:38:01;;;;;;;6.57;2.38;;;13.60;99.90;;;;;;4990365;28;20774;-85
2023/03/31 11:40:47;;;;;;;4.97;2.45;;;13.20;99.90;;;;;;4992587;28;20897;-80
2023/03/31 11:43:31;;;;;;;9.43;3.10;;;13.00;99.90;;;;;;4989606;28;20543;-86
2023/03/31 11:46:02;;;;;;;7.88;2.60;;;12.80;99.90;;;;;;4988108;28;20816;-85
2023/03/31 11:48:35;;;;;;;13.43;4.50;;;12.70;99.90;;;;;;4988327;28;20460;-86
2023/03/31 11:51:04;;;;;;;8.90;3.70;;;12.80;99.90;;;;;;4991107;28;20414;-84
2023/03/31 11:53:34;;;;;;;9.00;3.23;;;12.60;99.90;;;;;;4988481;28;20497;-85
2023/03/31 11:56:03;;;;;;;11.40;3.60;;;12.50;99.90;;;;;;4957607;28;20420;-84
2023/03/31 11:58:36;;;;;;;11.05;3.40;;;12.70;99.90;;;;;;4986358;28;20426;-77
2023/03/31 12:01:24;;;;;;;8.18;3.47;;;12.50;99.90;;;;;;4988641;28;20445;-77
2023/03/31 12:04:14;;;;;;;13.43;4.13;;;12.60;99.90;;;;;;4980548;28;20770;-84
2023/03/31 12:06:41;;;;;;;8.90;3.83;;;12.50;99.90;;;;;;4975510;28;20996;-83
2023/03/31 12:09:29;;;;;;;8.82;3.05;;;12.50;99.90;;;;;;4989494;28;20470;-82
2023/03/31 12:12:26;;;;;;;10.70;4.20;;;12.60;99.90;;;;;;4985937;28;20434;-84
2023/03/31 12:15:25;;;;;;;7.75;2.58;;;12.70;99.90;;;;;;4985541;28;20433;-85
2023/03/31 12:18:19;;;;;;;9.20;3.67;;;12.70;99.90;;;;;;4978718;28;20439;-85
2023/03/31 12:20:55;;;;;;;10.82;3.22;;;12.60;99.90;;;;;;4975673;28;20968;-87
2023/03/31 12:23:27;;;;;;;8.90;3.40;;;12.80;99.90;;;;;;4987232;28;21010;-87
2023/03/31 12:26:22;;;;;;;6.00;2.58;;;12.90;99.90;;;;;;4989815;28;20414;-83
2023/03/31 12:28:52;;;;;;;10.20;3.70;;;12.80;99.90;;;;;;4991972;28;20542;-85
2023/03/31 12:31:22;;;;;;;10.55;4.40;;;12.70;99.90;;;;;;4990660;28;20509;-87
2023/03/31 12:34:03;;;;;;;10.18;3.60;;;13.10;99.90;;;;;;4989903;28;20473;-83
2023/03/31 12:36:51;;;;;;;11.23;3.80;;;13.10;99.90;;;;;;4989229;28;20426;-84
2023/03/31 12:39:54;;;;;;;10.70;3.95;;;13.40;99.90;;;;;;4982464;28;20417;-83
2023/03/31 12:42:45;;;;;;;10.45;3.55;;;13.60;99.90;;;;;;4953808;28;20424;-78
2023/03/31 12:45:27;;;;;;;10.03;3.47;;;13.70;99.90;;;;;;4987089;28;20527;-83
2023/03/31 12:47:59;;;;;;;8.82;2.95;;;13.50;99.90;;;;;;4992179;28;20502;-79
2023/03/31 12:50:33;;;;;;;10.18;4.18;;;13.50;99.90;;;;;;4989869;28;20459;-76
2023/03/31 12:53:22;;;;;;;11.88;3.40;;;13.50;99.90;;;;;;4994679;28;20469;-77
2023/03/31 12:55:53;;;;;;;12.23;3.95;;;13.20;99.90;;;;;;5002292;28;20462;-77
2023/03/31 12:58:40;;;;;;;11.57;3.40;;;13.20;99.90;;;;;;5002710;28;20413;-81
2023/03/31 13:01:13;;;;;;;13.65;4.38;;;13.20;99.90;;;;;;5000457;28;20442;-77
2023/03/31 13:03:50;;;;;;;10.88;3.78;;;13.20;99.90;;;;;;4990527;28;20438;-83
2023/03/31 13:06:28;;;;;;;9.40;4.25;;;13.10;99.90;;;;;;4991037;28;20427;-83
2023/03/31 13:09:04;;;;;;;16.23;4.20;;;12.90;99.90;;;;;;4990506;28;20461;-85
2023/03/31 13:11:36;;;;;;;11.27;3.55;;;12.90;99.90;;;;;;5001371;28;20446;-77